sensor_id;sensor_type;location;lat;lon;timestamp;P1;durP1;ratioP1;P2;durP2;ratioP2
69569;SDS011;56781;42.292;23.146;2023-07-31T00:00:53;8.50;;;4.45;;
69569;SDS011;56781;42.292;23.146;2023-07-31T00:03:20;8.80;;;4.68;;
69569;SDS011;56781;42.292;23.146;2023-07-31T00:05:47;9.45;;;4.70;;
69569;SDS011;56781;42.292;23.146;2023-07-31T00:08:14;9.02;;;4.53;;
69569;SDS011;56781;42.292;23.146;2023-07-31T00:10:41;7.07;;;4.07;;
69569;SDS011;56781;42.292;23.146;2023-07-31T00:13:09;8.98;;;4.57;;
69569;SDS011;56781;42.292;23.146;2023-07-31T00:15:37;6.68;;;4.40;;
69569;SDS011;56781;42.292;23.146;2023-07-31T00:18:04;8.30;;;4.60;;
69569;SDS011;56781;42.292;23.146;2023-07-31T00:20:31;7.50;;;4.47;;
69569;SDS011;56781;42.292;23.146;2023-07-31T00:22:59;9.52;;;4.40;;
69569;SDS011;56781;42.292;23.146;2023-07-31T00:25:26;7.57;;;4.22;;
69569;SDS011;56781;42.292;23.146;2023-07-31T00:27:53;7.85;;;4.90;;
69569;SDS011;56781;42.292;23.146;2023-07-31T00:30:20;8.95;;;4.28;;
69569;SDS011;56781;42.292;23.146;2023-07-31T00:32:49;11.75;;;4.60;;
69569;SDS011;56781;42.292;23.146;2023-07-31T00:35:16;12.05;;;5.00;;
69569;SDS011;56781;42.292;23.146;2023-07-31T00:37:43;7.88;;;4.55;;
69569;SDS011;56781;42.292;23.146;2023-07-31T00:40:10;8.98;;;4.88;;
69569;SDS011;56781;42.292;23.146;2023-07-31T00:42:38;8.20;;;5.25;;
69569;SDS011;56781;42.292;23.146;2023-07-31T00:45:05;8.00;;;4.60;;
69569;SDS011;56781;42.292;23.146;2023-07-31T00:47:32;8.10;;;4.65;;
69569;SDS011;56781;42.292;23.146;2023-07-31T00:50:00;8.82;;;4.63;;
69569;SDS011;56781;42.292;23.146;2023-07-31T00:52:28;7.50;;;4.38;;
69569;SDS011;56781;42.292;23.146;2023-07-31T00:54:55;8.10;;;4.72;;
69569;SDS011;56781;42.292;23.146;2023-07-31T00:57:22;8.48;;;4.65;;
69569;SDS011;56781;42.292;23.146;2023-07-31T00:59:49;7.53;;;4.32;;
69569;SDS011;56781;42.292;23.146;2023-07-31T01:02:17;7.60;;;4.20;;
69569;SDS011;56781;42.292;23.146;2023-07-31T01:04:44;7.45;;;3.97;;
69569;SDS011;56781;42.292;23.146;2023-07-31T01:07:14;10.95;;;4.30;;
69569;SDS011;56781;42.292;23.146;2023-07-31T01:09:53;8.73;;;5.03;;
69569;SDS011;56781;42.292;23.146;2023-07-31T01:12:34;8.25;;;4.10;;
69569;SDS011;56781;42.292;23.146;2023-07-31T01:15:08;9.73;;;4.53;;
69569;SDS011;56781;42.292;23.146;2023-07-31T01:17:41;8.65;;;5.00;;
69569;SDS011;56781;42.292;23.146;2023-07-31T01:23:00;8.70;;;4.97;;
69569;SDS011;56781;42.292;23.146;2023-07-31T01:28:24;9.48;;;5.05;;
69569;SDS011;56781;42.292;23.146;2023-07-31T01:30:58;7.63;;;4.55;;
69569;SDS011;56781;42.292;23.146;2023-07-31T01:33:28;8.63;;;5.07;;
69569;SDS011;56781;42.292;23.146;2023-07-31T01:35:55;9.60;;;4.50;;
69569;SDS011;56781;42.292;23.146;2023-07-31T01:38:23;8.55;;;4.80;;
69569;SDS011;56781;42.292;23.146;2023-07-31T01:40:51;8.85;;;5.18;;
69569;SDS011;56781;42.292;23.146;2023-07-31T01:43:19;8.02;;;4.95;;
69569;SDS011;56781;42.292;23.146;2023-07-31T01:45:47;7.57;;;4.72;;
69569;SDS011;56781;42.292;23.146;2023-07-31T01:48:14;9.02;;;5.40;;
69569;SDS011;56781;42.292;23.146;2023-07-31T01:50:41;8.27;;;5.20;;
69569;SDS011;56781;42.292;23.146;2023-07-31T01:53:08;9.80;;;5.00;;
69569;SDS011;56781;42.292;23.146;2023-07-31T01:55:35;7.80;;;4.68;;
69569;SDS011;56781;42.292;23.146;2023-07-31T01:58:03;8.20;;;4.80;;
69569;SDS011;56781;42.292;23.146;2023-07-31T02:00:30;7.72;;;4.65;;
69569;SDS011;56781;42.292;23.146;2023-07-31T02:02:58;9.27;;;4.93;;
69569;SDS011;56781;42.292;23.146;2023-07-31T02:05:26;8.82;;;4.78;;
69569;SDS011;56781;42.292;23.146;2023-07-31T02:07:54;7.35;;;4.82;;
69569;SDS011;56781;42.292;23.146;2023-07-31T02:10:21;8.27;;;5.43;;
69569;SDS011;56781;42.292;23.146;2023-07-31T02:12:48;9.88;;;6.00;;
69569;SDS011;56781;42.292;23.146;2023-07-31T02:15:15;11.90;;;6.75;;
69569;SDS011;56781;42.292;23.146;2023-07-31T02:17:42;11.73;;;6.88;;
69569;SDS011;56781;42.292;23.146;2023-07-31T02:20:10;10.88;;;6.75;;
69569;SDS011;56781;42.292;23.146;2023-07-31T02:22:37;10.20;;;5.88;;
69569;SDS011;56781;42.292;23.146;2023-07-31T02:25:04;9.40;;;5.65;;
69569;SDS011;56781;42.292;23.146;2023-07-31T02:27:32;9.70;;;5.82;;
69569;SDS011;56781;42.292;23.146;2023-07-31T02:29:59;10.25;;;5.95;;
69569;SDS011;56781;42.292;23.146;2023-07-31T02:32:26;12.90;;;6.15;;
69569;SDS011;56781;42.292;23.146;2023-07-31T02:34:53;11.38;;;6.35;;
69569;SDS011;56781;42.292;23.146;2023-07-31T02:37:21;11.77;;;6.95;;
69569;SDS011;56781;42.292;23.146;2023-07-31T02:39:48;13.15;;;7.45;;
69569;SDS011;56781;42.292;23.146;2023-07-31T02:42:15;12.68;;;7.05;;
69569;SDS011;56781;42.292;23.146;2023-07-31T02:44:42;12.43;;;7.65;;
69569;SDS011;56781;42.292;23.146;2023-07-31T02:47:09;15.35;;;8.60;;
69569;SDS011;56781;42.292;23.146;2023-07-31T02:49:36;15.70;;;9.43;;
69569;SDS011;56781;42.292;23.146;2023-07-31T02:52:04;17.75;;;10.00;;
69569;SDS011;56781;42.292;23.146;2023-07-31T02:54:32;16.70;;;9.85;;
69569;SDS011;56781;42.292;23.146;2023-07-31T02:56:59;16.75;;;9.73;;
69569;SDS011;56781;42.292;23.146;2023-07-31T02:59:27;18.67;;;11.32;;
69569;SDS011;56781;42.292;23.146;2023-07-31T03:01:54;20.55;;;11.95;;
69569;SDS011;56781;42.292;23.146;2023-07-31T03:04:25;19.98;;;11.50;;
69569;SDS011;56781;42.292;23.146;2023-07-31T03:06:52;20.77;;;12.55;;
69569;SDS011;56781;42.292;23.146;2023-07-31T03:09:19;20.13;;;11.85;;
69569;SDS011;56781;42.292;23.146;2023-07-31T03:11:46;19.52;;;11.52;;
69569;SDS011;56781;42.292;23.146;2023-07-31T03:14:13;19.35;;;11.60;;
69569;SDS011;56781;42.292;23.146;2023-07-31T03:16:43;20.27;;;11.77;;
69569;SDS011;56781;42.292;23.146;2023-07-31T03:19:10;22.40;;;12.93;;
69569;SDS011;56781;42.292;23.146;2023-07-31T03:21:38;21.48;;;11.75;;
69569;SDS011;56781;42.292;23.146;2023-07-31T03:24:05;20.27;;;12.00;;
69569;SDS011;56781;42.292;23.146;2023-07-31T03:26:32;20.80;;;11.10;;
69569;SDS011;56781;42.292;23.146;2023-07-31T03:28:59;17.63;;;10.88;;
69569;SDS011;56781;42.292;23.146;2023-07-31T03:31:26;17.10;;;10.43;;
69569;SDS011;56781;42.292;23.146;2023-07-31T03:33:54;18.58;;;10.90;;
69569;SDS011;56781;42.292;23.146;2023-07-31T03:36:21;18.77;;;10.90;;
69569;SDS011;56781;42.292;23.146;2023-07-31T03:38:48;17.35;;;10.00;;
69569;SDS011;56781;42.292;23.146;2023-07-31T03:41:15;17.35;;;9.98;;
69569;SDS011;56781;42.292;23.146;2023-07-31T03:43:43;17.60;;;10.40;;
69569;SDS011;56781;42.292;23.146;2023-07-31T03:46:12;18.15;;;10.30;;
69569;SDS011;56781;42.292;23.146;2023-07-31T03:48:39;16.67;;;9.85;;
69569;SDS011;56781;42.292;23.146;2023-07-31T03:51:06;17.27;;;10.52;;
69569;SDS011;56781;42.292;23.146;2023-07-31T03:53:34;18.45;;;10.45;;
69569;SDS011;56781;42.292;23.146;2023-07-31T03:56:01;17.50;;;10.68;;
69569;SDS011;56781;42.292;23.146;2023-07-31T03:58:28;19.45;;;11.30;;
69569;SDS011;56781;42.292;23.146;2023-07-31T04:00:55;15.75;;;9.35;;
69569;SDS011;56781;42.292;23.146;2023-07-31T04:03:23;13.02;;;8.25;;
69569;SDS011;56781;42.292;23.146;2023-07-31T04:05:50;16.17;;;8.40;;
69569;SDS011;56781;42.292;23.146;2023-07-31T04:08:17;13.85;;;8.63;;
69569;SDS011;56781;42.292;23.146;2023-07-31T04:10:44;16.50;;;9.43;;
69569;SDS011;56781;42.292;23.146;2023-07-31T04:13:11;14.25;;;9.23;;
69569;SDS011;56781;42.292;23.146;2023-07-31T04:15:38;15.43;;;9.05;;
69569;SDS011;56781;42.292;23.146;2023-07-31T04:18:06;13.73;;;8.68;;
69569;SDS011;56781;42.292;23.146;2023-07-31T04:20:33;16.25;;;9.48;;
69569;SDS011;56781;42.292;23.146;2023-07-31T04:23:00;17.55;;;9.45;;
69569;SDS011;56781;42.292;23.146;2023-07-31T04:25:28;16.27;;;8.57;;
69569;SDS011;56781;42.292;23.146;2023-07-31T04:27:55;13.15;;;8.68;;
69569;SDS011;56781;42.292;23.146;2023-07-31T04:30:22;14.70;;;9.38;;
69569;SDS011;56781;42.292;23.146;2023-07-31T04:32:49;17.67;;;10.18;;
69569;SDS011;56781;42.292;23.146;2023-07-31T04:35:17;14.65;;;9.38;;
69569;SDS011;56781;42.292;23.146;2023-07-31T04:37:44;17.02;;;10.75;;
69569;SDS011;56781;42.292;23.146;2023-07-31T04:40:15;17.48;;;10.48;;
69569;SDS011;56781;42.292;23.146;2023-07-31T04:42:43;18.15;;;10.02;;
69569;SDS011;56781;42.292;23.146;2023-07-31T04:45:10;17.42;;;10.57;;
69569;SDS011;56781;42.292;23.146;2023-07-31T04:47:38;17.20;;;9.55;;
69569;SDS011;56781;42.292;23.146;2023-07-31T04:50:05;15.65;;;9.63;;
69569;SDS011;56781;42.292;23.146;2023-07-31T04:52:33;16.67;;;10.43;;
69569;SDS011;56781;42.292;23.146;2023-07-31T04:55:00;15.57;;;9.10;;
69569;SDS011;56781;42.292;23.146;2023-07-31T04:57:27;15.88;;;9.20;;
69569;SDS011;56781;42.292;23.146;2023-07-31T04:59:55;15.80;;;9.98;;
69569;SDS011;56781;42.292;23.146;2023-07-31T05:02:22;15.57;;;8.88;;
69569;SDS011;56781;42.292;23.146;2023-07-31T05:04:49;17.33;;;9.25;;
69569;SDS011;56781;42.292;23.146;2023-07-31T05:07:17;15.23;;;8.93;;
69569;SDS011;56781;42.292;23.146;2023-07-31T05:09:44;15.48;;;9.50;;
69569;SDS011;56781;42.292;23.146;2023-07-31T05:12:11;16.55;;;8.88;;
69569;SDS011;56781;42.292;23.146;2023-07-31T05:14:39;14.88;;;9.10;;
69569;SDS011;56781;42.292;23.146;2023-07-31T05:17:06;16.40;;;9.43;;
69569;SDS011;56781;42.292;23.146;2023-07-31T05:19:34;18.15;;;10.07;;
69569;SDS011;56781;42.292;23.146;2023-07-31T05:22:01;15.88;;;9.80;;
69569;SDS011;56781;42.292;23.146;2023-07-31T05:24:32;17.10;;;10.52;;
69569;SDS011;56781;42.292;23.146;2023-07-31T05:27:00;16.13;;;9.88;;
69569;SDS011;56781;42.292;23.146;2023-07-31T05:29:27;17.63;;;10.30;;
69569;SDS011;56781;42.292;23.146;2023-07-31T05:31:55;19.20;;;11.30;;
69569;SDS011;56781;42.292;23.146;2023-07-31T05:34:22;18.08;;;10.40;;
69569;SDS011;56781;42.292;23.146;2023-07-31T05:36:49;16.25;;;10.75;;
69569;SDS011;56781;42.292;23.146;2023-07-31T05:39:16;20.40;;;11.60;;
69569;SDS011;56781;42.292;23.146;2023-07-31T05:41:45;20.75;;;10.77;;
69569;SDS011;56781;42.292;23.146;2023-07-31T05:44:12;20.02;;;11.05;;
69569;SDS011;56781;42.292;23.146;2023-07-31T05:46:39;16.67;;;10.20;;
69569;SDS011;56781;42.292;23.146;2023-07-31T05:49:07;15.52;;;9.25;;
69569;SDS011;56781;42.292;23.146;2023-07-31T05:51:34;17.38;;;10.88;;
69569;SDS011;56781;42.292;23.146;2023-07-31T05:54:01;19.85;;;11.60;;
69569;SDS011;56781;42.292;23.146;2023-07-31T05:56:28;20.42;;;11.55;;
69569;SDS011;56781;42.292;23.146;2023-07-31T05:58:56;24.58;;;12.70;;
69569;SDS011;56781;42.292;23.146;2023-07-31T06:01:23;20.95;;;12.00;;
69569;SDS011;56781;42.292;23.146;2023-07-31T06:03:51;21.45;;;12.63;;
69569;SDS011;56781;42.292;23.146;2023-07-31T06:06:18;20.15;;;12.60;;
69569;SDS011;56781;42.292;23.146;2023-07-31T06:08:45;22.02;;;12.43;;
69569;SDS011;56781;42.292;23.146;2023-07-31T06:11:12;19.58;;;12.18;;
69569;SDS011;56781;42.292;23.146;2023-07-31T06:13:40;19.17;;;12.07;;
69569;SDS011;56781;42.292;23.146;2023-07-31T06:16:09;21.58;;;12.35;;
69569;SDS011;56781;42.292;23.146;2023-07-31T06:18:36;21.58;;;12.20;;
69569;SDS011;56781;42.292;23.146;2023-07-31T06:21:04;20.95;;;12.10;;
69569;SDS011;56781;42.292;23.146;2023-07-31T06:23:31;20.08;;;11.32;;
69569;SDS011;56781;42.292;23.146;2023-07-31T06:25:58;18.15;;;11.38;;
69569;SDS011;56781;42.292;23.146;2023-07-31T06:28:29;19.35;;;11.43;;
69569;SDS011;56781;42.292;23.146;2023-07-31T06:30:57;18.52;;;11.38;;
69569;SDS011;56781;42.292;23.146;2023-07-31T06:33:25;19.52;;;11.80;;
69569;SDS011;56781;42.292;23.146;2023-07-31T06:35:52;19.92;;;11.93;;
69569;SDS011;56781;42.292;23.146;2023-07-31T06:38:22;20.38;;;12.00;;
69569;SDS011;56781;42.292;23.146;2023-07-31T06:40:51;19.35;;;11.38;;
69569;SDS011;56781;42.292;23.146;2023-07-31T06:43:18;17.38;;;10.00;;
69569;SDS011;56781;42.292;23.146;2023-07-31T06:45:46;16.23;;;9.05;;
69569;SDS011;56781;42.292;23.146;2023-07-31T06:48:15;18.20;;;8.63;;
69569;SDS011;56781;42.292;23.146;2023-07-31T06:50:42;16.23;;;9.27;;
69569;SDS011;56781;42.292;23.146;2023-07-31T06:53:09;15.40;;;8.65;;
69569;SDS011;56781;42.292;23.146;2023-07-31T06:55:36;13.23;;;8.80;;
69569;SDS011;56781;42.292;23.146;2023-07-31T06:58:04;18.10;;;9.40;;
69569;SDS011;56781;42.292;23.146;2023-07-31T07:00:31;14.63;;;8.70;;
69569;SDS011;56781;42.292;23.146;2023-07-31T07:02:59;12.23;;;8.00;;
69569;SDS011;56781;42.292;23.146;2023-07-31T07:05:26;14.50;;;7.65;;
69569;SDS011;56781;42.292;23.146;2023-07-31T07:07:54;12.55;;;7.55;;
69569;SDS011;56781;42.292;23.146;2023-07-31T07:10:21;11.63;;;7.50;;
69569;SDS011;56781;42.292;23.146;2023-07-31T07:12:49;11.30;;;6.75;;
69569;SDS011;56781;42.292;23.146;2023-07-31T07:15:16;10.85;;;6.47;;
69569;SDS011;56781;42.292;23.146;2023-07-31T07:17:44;10.18;;;5.82;;
69569;SDS011;56781;42.292;23.146;2023-07-31T07:20:11;9.98;;;6.22;;
69569;SDS011;56781;42.292;23.146;2023-07-31T07:22:39;10.20;;;5.97;;
69569;SDS011;56781;42.292;23.146;2023-07-31T07:25:09;11.23;;;6.25;;
69569;SDS011;56781;42.292;23.146;2023-07-31T07:27:37;9.90;;;6.43;;
69569;SDS011;56781;42.292;23.146;2023-07-31T07:30:04;9.70;;;6.20;;
69569;SDS011;56781;42.292;23.146;2023-07-31T07:32:32;8.02;;;5.30;;
69569;SDS011;56781;42.292;23.146;2023-07-31T07:35:00;7.32;;;4.90;;
69569;SDS011;56781;42.292;23.146;2023-07-31T07:37:27;8.40;;;5.30;;
69569;SDS011;56781;42.292;23.146;2023-07-31T07:39:54;8.10;;;5.00;;
69569;SDS011;56781;42.292;23.146;2023-07-31T07:42:22;7.32;;;4.53;;
69569;SDS011;56781;42.292;23.146;2023-07-31T07:44:49;7.03;;;4.68;;
69569;SDS011;56781;42.292;23.146;2023-07-31T07:47:17;8.30;;;4.53;;
69569;SDS011;56781;42.292;23.146;2023-07-31T07:49:44;6.80;;;4.38;;
69569;SDS011;56781;42.292;23.146;2023-07-31T07:52:18;6.78;;;4.20;;
69569;SDS011;56781;42.292;23.146;2023-07-31T07:54:45;7.28;;;4.68;;
69569;SDS011;56781;42.292;23.146;2023-07-31T07:57:13;5.38;;;3.45;;
69569;SDS011;56781;42.292;23.146;2023-07-31T07:59:40;7.50;;;4.40;;
69569;SDS011;56781;42.292;23.146;2023-07-31T08:02:07;7.53;;;5.20;;
69569;SDS011;56781;42.292;23.146;2023-07-31T08:04:35;8.57;;;4.95;;
69569;SDS011;56781;42.292;23.146;2023-07-31T08:07:02;8.32;;;5.45;;
69569;SDS011;56781;42.292;23.146;2023-07-31T08:09:29;7.50;;;5.47;;
69569;SDS011;56781;42.292;23.146;2023-07-31T08:11:57;10.57;;;6.07;;
69569;SDS011;56781;42.292;23.146;2023-07-31T08:14:28;8.98;;;5.65;;
69569;SDS011;56781;42.292;23.146;2023-07-31T08:16:58;7.95;;;5.57;;
69569;SDS011;56781;42.292;23.146;2023-07-31T08:19:26;8.48;;;5.70;;
69569;SDS011;56781;42.292;23.146;2023-07-31T08:21:54;8.52;;;4.85;;
69569;SDS011;56781;42.292;23.146;2023-07-31T08:24:23;8.13;;;4.75;;
69569;SDS011;56781;42.292;23.146;2023-07-31T08:26:51;6.75;;;4.53;;
69569;SDS011;56781;42.292;23.146;2023-07-31T08:29:18;7.38;;;5.25;;
69569;SDS011;56781;42.292;23.146;2023-07-31T08:31:45;8.73;;;5.80;;
69569;SDS011;56781;42.292;23.146;2023-07-31T08:34:12;6.63;;;4.60;;
69569;SDS011;56781;42.292;23.146;2023-07-31T08:36:39;7.88;;;4.50;;
69569;SDS011;56781;42.292;23.146;2023-07-31T08:39:07;5.97;;;3.90;;
69569;SDS011;56781;42.292;23.146;2023-07-31T08:41:38;6.50;;;4.10;;
69569;SDS011;56781;42.292;23.146;2023-07-31T08:44:08;8.32;;;4.28;;
69569;SDS011;56781;42.292;23.146;2023-07-31T08:46:37;5.82;;;3.95;;
69569;SDS011;56781;42.292;23.146;2023-07-31T08:49:05;6.05;;;3.75;;
69569;SDS011;56781;42.292;23.146;2023-07-31T08:51:34;5.07;;;2.63;;
69569;SDS011;56781;42.292;23.146;2023-07-31T08:54:02;5.72;;;2.75;;
69569;SDS011;56781;42.292;23.146;2023-07-31T08:56:32;3.47;;;2.10;;
69569;SDS011;56781;42.292;23.146;2023-07-31T08:59:01;3.90;;;2.30;;
69569;SDS011;56781;42.292;23.146;2023-07-31T09:01:31;4.60;;;2.50;;
69569;SDS011;56781;42.292;23.146;2023-07-31T09:04:07;4.13;;;2.35;;
69569;SDS011;56781;42.292;23.146;2023-07-31T09:06:37;3.75;;;2.17;;
69569;SDS011;56781;42.292;23.146;2023-07-31T09:09:06;4.85;;;2.60;;
69569;SDS011;56781;42.292;23.146;2023-07-31T09:11:33;4.10;;;2.70;;
69569;SDS011;56781;42.292;23.146;2023-07-31T09:14:01;4.65;;;2.50;;
69569;SDS011;56781;42.292;23.146;2023-07-31T09:16:35;4.15;;;2.22;;
69569;SDS011;56781;42.292;23.146;2023-07-31T09:19:02;3.78;;;2.20;;
69569;SDS011;56781;42.292;23.146;2023-07-31T09:21:31;4.10;;;2.28;;
69569;SDS011;56781;42.292;23.146;2023-07-31T09:23:58;5.03;;;2.83;;
69569;SDS011;56781;42.292;23.146;2023-07-31T09:29:06;4.28;;;2.50;;
69569;SDS011;56781;42.292;23.146;2023-07-31T09:31:45;3.70;;;2.15;;
69569;SDS011;56781;42.292;23.146;2023-07-31T09:34:12;3.78;;;2.22;;
69569;SDS011;56781;42.292;23.146;2023-07-31T09:36:41;3.70;;;2.10;;
69569;SDS011;56781;42.292;23.146;2023-07-31T09:39:13;4.28;;;1.92;;
69569;SDS011;56781;42.292;23.146;2023-07-31T09:41:43;4.47;;;2.75;;
69569;SDS011;56781;42.292;23.146;2023-07-31T09:44:13;3.70;;;2.30;;
69569;SDS011;56781;42.292;23.146;2023-07-31T09:46:40;4.45;;;2.65;;
69569;SDS011;56781;42.292;23.146;2023-07-31T09:49:08;4.53;;;2.60;;
69569;SDS011;56781;42.292;23.146;2023-07-31T09:51:37;6.60;;;3.88;;
69569;SDS011;56781;42.292;23.146;2023-07-31T09:54:12;13.27;;;7.32;;
69569;SDS011;56781;42.292;23.146;2023-07-31T09:56:44;3.40;;;2.03;;
69569;SDS011;56781;42.292;23.146;2023-07-31T09:59:16;4.85;;;2.70;;
69569;SDS011;56781;42.292;23.146;2023-07-31T10:01:50;3.90;;;2.17;;
69569;SDS011;56781;42.292;23.146;2023-07-31T10:04:19;3.88;;;1.80;;
69569;SDS011;56781;42.292;23.146;2023-07-31T10:06:54;3.25;;;1.75;;
69569;SDS011;56781;42.292;23.146;2023-07-31T10:09:22;3.28;;;1.67;;
69569;SDS011;56781;42.292;23.146;2023-07-31T10:11:53;3.60;;;1.88;;
69569;SDS011;56781;42.292;23.146;2023-07-31T10:14:27;3.67;;;1.90;;
69569;SDS011;56781;42.292;23.146;2023-07-31T10:16:56;3.33;;;1.80;;
69569;SDS011;56781;42.292;23.146;2023-07-31T10:19:25;4.55;;;2.17;;
69569;SDS011;56781;42.292;23.146;2023-07-31T10:21:54;3.50;;;1.90;;
69569;SDS011;56781;42.292;23.146;2023-07-31T10:24:23;3.63;;;2.00;;
69569;SDS011;56781;42.292;23.146;2023-07-31T10:26:51;4.82;;;1.85;;
69569;SDS011;56781;42.292;23.146;2023-07-31T10:29:20;3.47;;;1.80;;
69569;SDS011;56781;42.292;23.146;2023-07-31T10:31:48;4.03;;;2.05;;
69569;SDS011;56781;42.292;23.146;2023-07-31T10:34:17;3.72;;;2.05;;
69569;SDS011;56781;42.292;23.146;2023-07-31T10:36:45;3.20;;;2.00;;
69569;SDS011;56781;42.292;23.146;2023-07-31T10:42:12;4.28;;;2.20;;
69569;SDS011;56781;42.292;23.146;2023-07-31T10:44:49;3.53;;;2.08;;
69569;SDS011;56781;42.292;23.146;2023-07-31T10:47:17;3.65;;;1.90;;
69569;SDS011;56781;42.292;23.146;2023-07-31T10:49:45;3.50;;;1.95;;
69569;SDS011;56781;42.292;23.146;2023-07-31T10:52:13;3.72;;;1.85;;
69569;SDS011;56781;42.292;23.146;2023-07-31T10:54:45;3.38;;;1.80;;
69569;SDS011;56781;42.292;23.146;2023-07-31T10:57:19;3.15;;;1.88;;
69569;SDS011;56781;42.292;23.146;2023-07-31T10:59:48;3.08;;;1.77;;
69569;SDS011;56781;42.292;23.146;2023-07-31T11:02:26;3.85;;;1.83;;
69569;SDS011;56781;42.292;23.146;2023-07-31T11:05:05;3.92;;;1.95;;
69569;SDS011;56781;42.292;23.146;2023-07-31T11:07:49;3.40;;;1.80;;
69569;SDS011;56781;42.292;23.146;2023-07-31T11:10:17;4.10;;;2.10;;
69569;SDS011;56781;42.292;23.146;2023-07-31T11:12:45;3.35;;;1.80;;
69569;SDS011;56781;42.292;23.146;2023-07-31T11:15:13;3.58;;;1.70;;
69569;SDS011;56781;42.292;23.146;2023-07-31T11:17:42;3.47;;;2.10;;
69569;SDS011;56781;42.292;23.146;2023-07-31T11:20:09;3.65;;;2.00;;
69569;SDS011;56781;42.292;23.146;2023-07-31T11:22:38;3.60;;;1.92;;
69569;SDS011;56781;42.292;23.146;2023-07-31T11:25:05;5.15;;;1.80;;
69569;SDS011;56781;42.292;23.146;2023-07-31T11:27:38;3.60;;;1.90;;
69569;SDS011;56781;42.292;23.146;2023-07-31T11:30:10;3.28;;;1.90;;
69569;SDS011;56781;42.292;23.146;2023-07-31T11:32:38;3.22;;;1.75;;
69569;SDS011;56781;42.292;23.146;2023-07-31T11:35:05;4.05;;;1.90;;
69569;SDS011;56781;42.292;23.146;2023-07-31T11:37:43;5.07;;;1.80;;
69569;SDS011;56781;42.292;23.146;2023-07-31T11:40:12;3.95;;;2.15;;
69569;SDS011;56781;42.292;23.146;2023-07-31T11:42:40;3.38;;;1.75;;
69569;SDS011;56781;42.292;23.146;2023-07-31T11:45:08;3.70;;;2.00;;
69569;SDS011;56781;42.292;23.146;2023-07-31T11:47:36;3.90;;;2.00;;
69569;SDS011;56781;42.292;23.146;2023-07-31T11:50:06;3.88;;;1.90;;
69569;SDS011;56781;42.292;23.146;2023-07-31T11:52:40;3.42;;;1.90;;
69569;SDS011;56781;42.292;23.146;2023-07-31T11:55:10;3.20;;;1.67;;
69569;SDS011;56781;42.292;23.146;2023-07-31T11:57:39;4.10;;;1.70;;
69569;SDS011;56781;42.292;23.146;2023-07-31T12:00:09;3.40;;;1.80;;
69569;SDS011;56781;42.292;23.146;2023-07-31T12:02:40;3.25;;;1.80;;
69569;SDS011;56781;42.292;23.146;2023-07-31T12:05:12;4.93;;;2.10;;
69569;SDS011;56781;42.292;23.146;2023-07-31T12:07:47;3.15;;;1.70;;
69569;SDS011;56781;42.292;23.146;2023-07-31T12:10:27;3.03;;;1.80;;
69569;SDS011;56781;42.292;23.146;2023-07-31T12:12:58;3.50;;;1.70;;
69569;SDS011;56781;42.292;23.146;2023-07-31T12:15:34;3.47;;;1.90;;
69569;SDS011;56781;42.292;23.146;2023-07-31T12:18:07;3.38;;;1.80;;
69569;SDS011;56781;42.292;23.146;2023-07-31T12:20:40;3.30;;;1.70;;
69569;SDS011;56781;42.292;23.146;2023-07-31T12:28:30;3.00;;;1.70;;
69569;SDS011;56781;42.292;23.146;2023-07-31T12:31:01;3.05;;;1.58;;
69569;SDS011;56781;42.292;23.146;2023-07-31T12:33:35;3.10;;;1.80;;
69569;SDS011;56781;42.292;23.146;2023-07-31T12:36:10;3.50;;;2.15;;
69569;SDS011;56781;42.292;23.146;2023-07-31T12:38:40;3.50;;;2.10;;
69569;SDS011;56781;42.292;23.146;2023-07-31T12:41:08;3.20;;;1.88;;
69569;SDS011;56781;42.292;23.146;2023-07-31T12:43:35;3.92;;;2.10;;
69569;SDS011;56781;42.292;23.146;2023-07-31T12:46:04;3.90;;;2.30;;
69569;SDS011;56781;42.292;23.146;2023-07-31T12:48:31;3.42;;;2.30;;
69569;SDS011;56781;42.292;23.146;2023-07-31T12:50:59;4.07;;;2.58;;
69569;SDS011;56781;42.292;23.146;2023-07-31T12:53:26;4.30;;;2.60;;
69569;SDS011;56781;42.292;23.146;2023-07-31T12:55:54;3.85;;;2.40;;
69569;SDS011;56781;42.292;23.146;2023-07-31T12:58:24;5.38;;;2.92;;
69569;SDS011;56781;42.292;23.146;2023-07-31T13:00:52;4.00;;;2.60;;
69569;SDS011;56781;42.292;23.146;2023-07-31T13:03:19;4.55;;;2.92;;
69569;SDS011;56781;42.292;23.146;2023-07-31T13:05:46;5.30;;;3.00;;
69569;SDS011;56781;42.292;23.146;2023-07-31T13:08:14;4.68;;;2.90;;
69569;SDS011;56781;42.292;23.146;2023-07-31T13:10:42;4.75;;;3.10;;
69569;SDS011;56781;42.292;23.146;2023-07-31T13:13:09;4.73;;;2.60;;
69569;SDS011;56781;42.292;23.146;2023-07-31T13:15:37;4.50;;;2.83;;
69569;SDS011;56781;42.292;23.146;2023-07-31T13:18:04;5.45;;;2.90;;
69569;SDS011;56781;42.292;23.146;2023-07-31T13:20:31;4.15;;;2.70;;
69569;SDS011;56781;42.292;23.146;2023-07-31T13:22:58;4.57;;;2.90;;
69569;SDS011;56781;42.292;23.146;2023-07-31T13:25:26;5.20;;;2.90;;
69569;SDS011;56781;42.292;23.146;2023-07-31T13:27:54;4.20;;;2.63;;
69569;SDS011;56781;42.292;23.146;2023-07-31T13:30:23;4.07;;;2.80;;
69569;SDS011;56781;42.292;23.146;2023-07-31T13:32:50;5.78;;;3.50;;
69569;SDS011;56781;42.292;23.146;2023-07-31T13:35:17;5.57;;;3.40;;
69569;SDS011;56781;42.292;23.146;2023-07-31T13:37:45;5.53;;;3.60;;
69569;SDS011;56781;42.292;23.146;2023-07-31T13:40:12;5.63;;;3.42;;
69569;SDS011;56781;42.292;23.146;2023-07-31T13:42:39;6.47;;;3.40;;
69569;SDS011;56781;42.292;23.146;2023-07-31T13:45:06;5.60;;;3.88;;
69569;SDS011;56781;42.292;23.146;2023-07-31T13:47:34;7.32;;;4.28;;
69569;SDS011;56781;42.292;23.146;2023-07-31T13:50:04;6.73;;;4.43;;
69569;SDS011;56781;42.292;23.146;2023-07-31T13:52:31;7.38;;;4.25;;
69569;SDS011;56781;42.292;23.146;2023-07-31T13:54:58;6.78;;;4.70;;
69569;SDS011;56781;42.292;23.146;2023-07-31T13:57:25;7.18;;;4.53;;
69569;SDS011;56781;42.292;23.146;2023-07-31T13:59:52;6.45;;;4.53;;
69569;SDS011;56781;42.292;23.146;2023-07-31T14:02:20;7.67;;;4.97;;
69569;SDS011;56781;42.292;23.146;2023-07-31T14:04:47;7.47;;;5.30;;
69569;SDS011;56781;42.292;23.146;2023-07-31T14:07:14;7.88;;;5.07;;
69569;SDS011;56781;42.292;23.146;2023-07-31T14:09:41;6.97;;;5.18;;
69569;SDS011;56781;42.292;23.146;2023-07-31T14:12:08;7.90;;;5.57;;
69569;SDS011;56781;42.292;23.146;2023-07-31T14:14:36;6.95;;;5.25;;
69569;SDS011;56781;42.292;23.146;2023-07-31T14:17:03;7.60;;;5.13;;
69569;SDS011;56781;42.292;23.146;2023-07-31T14:19:30;7.43;;;5.45;;
69569;SDS011;56781;42.292;23.146;2023-07-31T14:21:59;7.35;;;5.00;;
69569;SDS011;56781;42.292;23.146;2023-07-31T14:24:36;9.60;;;5.32;;
69569;SDS011;56781;42.292;23.146;2023-07-31T14:27:04;6.55;;;4.88;;
69569;SDS011;56781;42.292;23.146;2023-07-31T14:29:31;7.63;;;4.90;;
69569;SDS011;56781;42.292;23.146;2023-07-31T14:31:58;7.13;;;4.75;;
69569;SDS011;56781;42.292;23.146;2023-07-31T14:34:26;7.60;;;5.00;;
69569;SDS011;56781;42.292;23.146;2023-07-31T14:36:54;8.68;;;5.60;;
69569;SDS011;56781;42.292;23.146;2023-07-31T14:39:21;7.43;;;5.30;;
69569;SDS011;56781;42.292;23.146;2023-07-31T14:41:48;7.55;;;5.30;;
69569;SDS011;56781;42.292;23.146;2023-07-31T14:44:15;7.43;;;5.40;;
69569;SDS011;56781;42.292;23.146;2023-07-31T14:46:42;8.73;;;5.72;;
69569;SDS011;56781;42.292;23.146;2023-07-31T14:49:10;8.10;;;5.55;;
69569;SDS011;56781;42.292;23.146;2023-07-31T14:51:37;7.28;;;5.20;;